Hamilton Island, Australia

12:15 PM AEST on September 26, 2017 (GMT +1000)
Hamilton Island

Weather History for YBHM - May, 2013

Change the Weather History Date:

Sunday, May 5, 2013

  Actual Average Record
Temperature  
Mean Temperature 74 °F -  
Max Temperature 77 °F - - ()
Min Temperature 71 °F - - ()
Cooling Degree Days 9    
Growing Degree Days 24 (Base 50)    
Moisture  
Dew Point 63 °F    
Average Humidity 66    
Maximum Humidity 83    
Minimum Humidity 45    
Precipitation  
Precipitation 0.01 in - - ()
Sea Level Pressure  
Sea Level Pressure 30.04 in    
Wind  
Wind Speed 16 mph ()    
Max Wind Speed 22 mph    
Max Gust Speed -    
T = Trace of Precipitation, MM = Missing Value Source: Averaged Metar Reports

Daily Weather History Graph

Daily Weather History Graph

Search for Another Location

Airport or City:

Trip Planner

Search our weather history database for the weather conditions in past years. The results will help you decide how hot, cold, wet, or windy it might be!

Date:

Astronomy

May. 05, 2013 Rise Set
Actual Time 6:21 AM AEST 5:39 PM AEST
Civil Twilight 5:59 AM AEST 6:02 PM AEST
Nautical Twilight 5:32 AM AEST 6:29 PM AEST
Astronomical Twilight 5:06 AM AEST 6:55 PM AEST
Moon 1:56 AM AEST (5/5) 2:22 PM AEST (5/5)
Length of Visible Light 12h 03m
Length of Day
11h 17m
Waning Crescent, 23% of the Moon is Illuminated
May 5
Waning Crescent
May 10
New
May 18
First Quarter
May 25
Full
Jun 1
Last Quarter

Hourly Weather History & Observations

Time (AEST) Temp. Dew Point Humidity Pressure Visibility Wind Dir Wind Speed Gust Speed Precip Events Conditions
12:00 AM 73 °F 61 °F 56% 30.09 in - ESE 16.1 mph - -  
12:00 AM 73.4 °F 60.8 °F 65% 30.09 in - ESE 16.1 mph - N/A   Unknown
12:30 AM 73.4 °F 60.8 °F 65% 30.06 in - ESE 16.1 mph - N/A   Unknown
1:00 AM 73.4 °F 59.0 °F 61% 30.06 in - ESE 16.1 mph - N/A   Unknown
1:30 AM 71.6 °F 60.8 °F 69% 30.06 in - ESE 16.1 mph - N/A   Unknown
2:00 AM 71.6 °F 62.6 °F 73% 30.06 in - SE 13.8 mph - N/A   Unknown
2:30 AM 71.6 °F 62.6 °F 73% 30.04 in - SE 16.1 mph - N/A   Unknown
3:00 AM 72 °F 62 °F 62% 30.04 in - SE 15.0 mph - -  
3:00 AM 71.6 °F 60.8 °F 69% 30.04 in - SE 15.0 mph - N/A   Unknown
3:30 AM 71.6 °F 62.6 °F 73% 30.04 in - SE 15.0 mph - N/A   Unknown
4:00 AM 71.6 °F 62.6 °F 73% 30.04 in - SE 13.8 mph - N/A   Unknown
4:30 AM 71.6 °F 62.6 °F 73% 30.04 in - SE 15.0 mph - N/A   Unknown
5:00 AM 71.6 °F 62.6 °F 73% 30.04 in - SE 15.0 mph - N/A   Unknown
5:30 AM 71.6 °F 64.4 °F 78% 30.04 in - SE 16.1 mph - N/A   Unknown
6:00 AM 72 °F 64 °F 69% 30.04 in - SE 18.4 mph - -  
6:00 AM 71.6 °F 64.4 °F 78% 30.04 in - SE 18.4 mph - N/A   Unknown
6:30 AM 71.6 °F 66.2 °F 83% 30.04 in - SE 19.6 mph - N/A   Unknown
7:00 AM 73.4 °F 66.2 °F 78% 30.06 in - SE 18.4 mph - N/A   Unknown
7:30 AM 73.4 °F 66.2 °F 78% 30.06 in - SE 17.3 mph - N/A   Unknown
8:00 AM 73.4 °F 66.2 °F 78% 30.06 in - SSE 17.3 mph - N/A   Unknown
8:30 AM 75.2 °F 64.4 °F 69% 30.06 in - SSE 18.4 mph - N/A   Unknown
9:00 AM 76 °F 66 °F 64% 30.09 in - SE 19.6 mph - -  
9:00 AM 75.2 °F 66.2 °F 73% 30.09 in - SE 19.6 mph - N/A   Unknown
9:30 AM 75.2 °F 66.2 °F 73% 30.09 in - SSE 19.6 mph - N/A   Unknown
10:00 AM 75.2 °F 66.2 °F 73% 30.09 in - SSE 17.3 mph - N/A   Unknown
10:30 AM 75.2 °F 66.2 °F 73% 30.09 in - SSE 17.3 mph - N/A   Unknown
11:00 AM 75.2 °F 66.2 °F 73% 30.06 in - SSE 17.3 mph - N/A   Unknown
11:30 AM 77.0 °F 66.2 °F 69% 30.06 in - SSE 18.4 mph - N/A   Unknown
12:00 PM 76 °F 64 °F 59% 30.05 in - SSE 18.4 mph - -  
12:00 PM 77.0 °F 64.4 °F 65% 30.04 in - SSE 18.4 mph - N/A   Unknown
12:30 PM 75.2 °F 64.4 °F 69% 30.04 in - SE 18.4 mph - N/A   Unknown
1:00 PM 77.0 °F 64.4 °F 65% 30.01 in - SE 19.6 mph - N/A   Unknown
1:30 PM 77.0 °F 62.6 °F 61% 30.01 in - SE 18.4 mph - N/A   Unknown
2:00 PM 77.0 °F 60.8 °F 57% 30.01 in - ESE 19.6 mph - N/A   Unknown
2:30 PM 77.0 °F 64.4 °F 65% 29.98 in - ESE 18.4 mph - N/A   Unknown
3:00 PM 76 °F 59 °F 45% 30.00 in - ESE 20.7 mph - -  
3:00 PM 75.2 °F 59.0 °F 57% 29.98 in - ESE 20.7 mph - N/A   Unknown
3:30 PM 75.2 °F 60.8 °F 61% 29.98 in - ESE 20.7 mph - N/A   Unknown
4:00 PM 75.2 °F 60.8 °F 61% 30.01 in - ESE 18.4 mph - N/A   Unknown
4:30 PM 75.2 °F 59.0 °F 57% 30.01 in - ESE 18.4 mph - N/A   Unknown
5:00 PM 75.2 °F 60.8 °F 61% 30.01 in - ESE 17.3 mph - N/A   Unknown
5:30 PM 75.2 °F 60.8 °F 61% 30.01 in - ESE 16.1 mph - N/A   Unknown
6:00 PM 75 °F 59 °F 47% 30.03 in - East 20.7 mph - -  
6:00 PM 75.2 °F 59.0 °F 57% 30.01 in - East 20.7 mph - N/A   Unknown
6:30 PM 75.2 °F 59.0 °F 57% 30.01 in - ESE 20.7 mph - N/A   Unknown
7:00 PM 75.2 °F 59.0 °F 57% 30.04 in - ESE 19.6 mph - N/A   Unknown
7:30 PM 73.4 °F 59.0 °F 61% 30.04 in - ESE 17.3 mph - N/A   Unknown
8:00 PM 73.4 °F 60.8 °F 65% 30.06 in - SE 18.4 mph - N/A   Unknown
9:00 PM 74 °F 63 °F 60% 30.06 in - SE 17.3 mph - -  
9:00 PM 73.4 °F 62.6 °F 69% 30.06 in - SE 17.3 mph - N/A   Unknown
9:30 PM 75.2 °F 60.8 °F 61% 30.04 in - ESE 19.6 mph - N/A   Unknown
10:00 PM 73.4 °F 59.0 °F 61% 30.04 in - ESE 17.3 mph - N/A   Unknown
10:30 PM 73.4 °F 62.6 °F 69% 30.04 in - SE 16.1 mph - N/A   Unknown
11:00 PM 73.4 °F 62.6 °F 69% 30.04 in - SE 13.8 mph - N/A   Unknown
11:30 PM 71.6 °F 66.2 °F 83% 30.04 in - East 21.9 mph - N/A   Unknown